Best Dividend Stocks - Toronto Stock Exchange

Screen the best dividend stocks for Toronto Stock Exchange

# Ticker Company Dividend Yield TTM Dividend Yield Streaks Last Quote Quote Date
1 TZS.TO Trez Capital Senior Mortgage Investment Corporation 100.51 % 100.51 % 1 1.97 2021-04-16
2 ALC.TO Algoma Central Corporation 34.93 % 35.22 % 27 16.95 2021-04-16
3 MIC.TO Genworth MI Canada Inc 15.64 % 3.73 % 12 43.48 2021-04-05
4 ENS.TO E Split Corp 11.18 % 11.18 % 4 13.95 2021-04-16
5 DFN.TO Dividend 15 Split Corp 10.18 % 11.45 % 18 7.86 2021-04-16
6 CHE-UN.TO Chemtrade Logistics Income Fund 9.90 % 8.49 % 21 7.07 2021-04-16
7 GDV.TO Global Dividend Growth Split Corp 9.88 % 9.88 % 4 12.15 2021-04-16
8 CEE.TO Centamin plc 9.18 % 9.18 % 7 1.96 2021-04-15
9 SOT-UN.TO Slate Office REIT 9.06 % 9.06 % 9 4.41 2021-04-16
10 SBC.TO Brompton Split Banc Corp 8.98 % 8.98 % 17 13.36 2021-04-16
11 CVG.TO Clairvest Group Inc 8.93 % 8.93 % 31 62.25 2021-04-16
12 DS.TO Dividend Select 15 Corp 8.85 % 8.61 % 12 7.27 2021-04-16
13 KPT.TO KP Tissue Inc 8.85 % 7.08 % 8 10.17 2021-04-16
14 BGI-UN.TO Brookfield Global Infrastructure Securities Income Fund 8.52 % 6.39 % 8 7.04 2021-04-16
15 TNT-UN.TO True North Commercial Real Estate Investment Trust 8.46 % 8.46 % 9 7.02 2021-04-16
16 DIV.TO Diversified Royalty Corp 8.44 % 7.48 % 8 2.50 2021-04-16
17 MRT-UN.TO Morguard Real Estate Investment Trust 8.37 % 3.80 % 21 5.26 2021-04-16
18 BTB-UN.TO BTB Real Estate Investment Trust 8.35 % 7.62 % 13 4.07 2021-04-16
19 INO-UN.TO Inovalis Real Estate Investment Trust 8.33 % 7.64 % 9 9.90 2021-04-16
20 BIR-PA.TO Birchcliff Energy Ltd 8.28 % 6.21 % 9 25.28 2021-04-16
21 AIM-PC.TO Aimia Inc 8.23 % 6.17 % 2 18.26 2021-04-16
22 FAP.TO Aberdeen Asia-Pacific Income Investment Company Limited 8.17 % 7.43 % 26 3.03 2021-04-16
23 BRE.TO Bridgemarq Real Estate Services Inc 8.14 % 8.14 % 19 16.65 2021-04-16
24 PIC-A.TO Premium Income Corporation 8.05 % 5.20 % 24 6.25 2021-04-16
25 MKP.TO MCAN Mortgage Corporation 7.98 % 5.98 % 29 17.05 2021-04-16
26 LIF.TO Labrador Iron Ore Royalty Corporation 7.94 % 7.03 % 25 38.42 2021-04-16
27 FSZ.TO Fiera Capital Corporation 7.91 % 5.93 % 31 10.62 2021-04-16
28 TF.TO Timbercreek Financial Corporation 7.67 % 7.69 % 6 9.05 2021-04-16
29 CNU.TO CNOOC Limited 7.49 % 7.49 % 7 112.00 2021-04-16
30 KEY.TO Keyera Corp 7.34 % 7.34 % 19 26.17 2021-04-16
31 XMF-PB.TO M Split Corp CLASS I PREF SHAR 7.25 % 7.25 % 6 5.17 2021-04-16
32 AIM-PA.TO Aimia Inc 7.18 % 5.47 % 2 16.46 2021-04-16
33 SII.TO Sprott Inc 7.13 % 7.07 % 13 51.33 2021-04-16
34 REI-UN.TO RioCan Real Estate Investment Trust 7.13 % 6.53 % 26 20.20 2021-04-16
35 PAYF.TO Purpose Enhanced Premium Yield Fund 7.11 % 7.11 % 3 19.93 2021-04-16
36 PLZ-UN.TO Plaza Retail REIT 7.02 % 7.02 % 20 3.99 2021-04-16
37 BIR-PC.TO Birchcliff Energy Ltd 6.99 % 5.24 % 7 25.05 2021-04-16
38 ENB.TO Enbridge Inc 6.95 % 5.21 % 30 46.63 2021-04-16
39 APR-UN.TO Automotive Properties Real Estate Investment Trust 6.85 % 6.85 % 7 11.74 2021-04-16
40 PPL.TO Pembina Pipeline Corporation 6.83 % 6.83 % 24 36.92 2021-04-16
41 ENB-PN.TO ENB-PN 6.82 % 5.11 % 9 18.65 2021-04-16
42 DC-PB.TO Dundee Corporation 6.77 % 5.08 % 12 19.51 2021-04-12
43 ENB-PH.TO ENB-PH 6.72 % 5.04 % 9 16.27 2021-04-16
44 ENB-PD.TO ENB-PD 6.68 % 5.01 % 9 16.70 2021-04-16
45 ENB-PF.TO ENB-PF 6.68 % 5.01 % 9 17.56 2021-04-16
46 FC.TO Firm Capital Mortgage Investment Corporation 6.67 % 6.67 % 23 14.15 2021-04-16
47 AI.TO Atrium Mortgage Investment Corporation 6.66 % 6.66 % 10 13.51 2021-04-16
48 PFB.TO PFB Corporation 6.66 % 6.22 % 24 20.58 2021-04-16
49 SRU-UN.TO SmartCentres Real Estate Investment Trust 6.64 % 6.64 % 20 27.87 2021-04-16
50 CIQ-UN.TO Canadian High Income Equity Fund 6.58 % 6.19 % 12 7.75 2021-04-16
51 AZP-PB.TO AZP-PB 6.57 % 4.92 % 11 21.85 2021-04-16
52 VET.TO Vermilion Energy Inc 6.56 % 0.00 % 18 8.76 2021-04-16
53 ECN-PA.TO ECN CAPITAL CORP PREF SERIES A 6.50 % 4.88 % 4 25.00 2021-04-16
54 RSI.TO Rogers Sugar Inc 6.49 % 4.86 % 23 5.55 2021-04-16
55 TA-PH.TO TA-PH 6.46 % 4.85 % 9 20.10 2021-04-16
56 PZA.TO Pizza Pizza Royalty Corp 6.43 % 5.96 % 17 10.48 2021-04-16
57 ENB-PP.TO Enbridge Inc 6.38 % 6.38 % 10 17.15 2021-04-16
58 GEI.TO Gibson Energy Inc 6.37 % 4.78 % 10 21.35 2021-04-16
59 POW.TO Power Corporation of Canada 6.37 % 3.90 % 31 34.49 2021-04-16
60 SIA.TO Sienna Senior Living Inc 6.29 % 6.29 % 12 14.87 2021-04-16
61 TXT-PA.TO TXT-PA 6.29 % 6.29 % 14 12.42 2021-04-16
62 CF-PC.TO Canaccord Genuity Group Inc 6.24 % 4.68 % 9 20.00 2021-04-15
63 FEC.TO Frontera Energy Corporation 6.24 % 0.00 % 2 6.57 2021-04-16
64 LFE-PB.TO Canadian Life Companies Split Corp 6.24 % 6.24 % 10 10.42 2021-04-16
65 HR-UN.TO H&R Real Estate Investment Trust 6.21 % 5.05 % 23 14.81 2021-04-16
66 CPX-PC.TO CPX-PC 6.20 % 4.65 % 8 22.00 2021-04-16
67 BK.TO Canadian Banc Corp 6.20 % 6.79 % 17 11.09 2021-04-16
68 AX-PE.TO AX-PE 6.19 % 4.64 % 8 22.10 2021-04-16
69 CF-PA.TO Canaccord Genuity Group Inc 6.19 % 4.64 % 10 15.70 2021-04-16
70 CPX-PE.TO CPX-PE 6.17 % 4.63 % 8 21.21 2021-04-16
71 AX-PA.TO AX-PA 6.15 % 4.61 % 9 23.01 2021-04-16
72 NWH-UN.TO NorthWest Healthcare Properties Real Estate Investment Trust 6.14 % 6.14 % 12 13.04 2021-04-16
73 ENB-PT.TO ENB-PT 5.95 % 5.95 % 9 17.10 2021-04-16
74 TA-PJ.TO TransAlta Corporation 5.94 % 4.45 % 7 21.00 2021-04-16
75 CUF-UN.TO Cominar Real Estate Investment Trust 5.89 % 4.96 % 23 9.67 2021-04-16
76 OLY.TO Olympia Financial Group Inc 5.87 % 5.87 % 16 46.99 2021-04-16
77 EIF.TO Exchange Income Corporation 5.87 % 5.87 % 18 38.83 2021-04-16
78 BCE-PC.TO BCE Inc 5.85 % 4.39 % 13 18.72 2021-04-16
79 YCM-PA.TO Commerce Split Corp Class I Pre 5.84 % 5.84 % 4 5.14 2021-04-12
80 EFN-PE.TO Element Financial Corporation PREF SER 5.83 % 4.37 % 7 25.31 2021-04-16
81 TA-PF.TO TA-PF 5.77 % 4.33 % 9 17.45 2021-04-16
82 INE-PC.TO INE-PC 5.73 % 4.30 % 8 25.08 2021-04-16
83 PWF-PO.TO PWF-PO 5.68 % 4.26 % 12 25.55 2021-04-16
84 ADN.TO Acadian Timber Corp 5.67 % 4.25 % 15 20.47 2021-04-16
85 GWO-PM.TO GWO-PM 5.65 % 4.24 % 11 25.66 2021-04-16
86 CWX.TO CanWel Building Materials Group Ltd 5.63 % 4.11 % 16 9.24 2021-04-16
87 DF-PA.TO DF-PA 5.61 % 5.61 % 14 10.25 2021-04-15
88 IGM.TO IGM Financial Inc 5.59 % 4.19 % 31 40.30 2021-04-16
89 CRR-UN.TO Crombie Real Estate Investment Trust 5.56 % 5.56 % 16 16.00 2021-04-16
90 AZP-PA.TO AZP-PA 5.56 % 4.17 % 13 21.80 2021-04-15
91 YCM-PB.TO Commerce Split Corp Class II PR 5.56 % 6.18 % 8 5.06 2021-04-12
92 GWO-PL.TO GWO-PL 5.54 % 4.16 % 11 25.48 2021-04-16
93 FTS-PG.TO FTS-PG 5.52 % 4.14 % 13 19.90 2021-04-16
94 NPI-PC.TO Northland Power Inc PREF SER 5.47 % 2.74 % 3 23.20 2021-04-16
95 INE-PA.TO Innergex Renewable Energy Inc 5.47 % 4.10 % 9 16.50 2021-04-16
96 ELF-PH.TO E-L Financial Corporation Limited 5.45 % 4.08 % 9 25.25 2021-04-16
97 TRP.TO TC Energy Corporation 5.44 % 4.08 % 31 59.58 2021-04-16
98 RY-PQ.TO Royal Bank of Canada 5.44 % 4.08 % 5 25.29 2021-04-16
99 FFH-PC.TO Fairfax Financial Holdings Limited 5.42 % 4.06 % 11 21.73 2021-04-16
100 CSE-PA.TO Capstone Infrastructure Corporation 5.41 % 2.70 % 9 15.12 2021-04-16
# Ticker Company Dividend Yield TTM Dividend Yield Streaks Last Quote Quote Date